sensor_id;sensor_type;location;lat;lon;timestamp;P1;durP1;ratioP1;P2;durP2;ratioP2
73909;SDS011;62245;48.070;7.874;2022-09-02T03:02:32;5.03;;;2.90;;
73909;SDS011;62245;48.070;7.874;2022-09-02T03:04:58;4.95;;;2.22;;
73909;SDS011;62245;48.070;7.874;2022-09-02T03:07:25;5.13;;;2.80;;
73909;SDS011;62245;48.070;7.874;2022-09-02T03:09:51;4.38;;;2.47;;
73909;SDS011;62245;48.070;7.874;2022-09-02T03:12:16;4.77;;;2.67;;
73909;SDS011;62245;48.070;7.874;2022-09-02T03:14:41;4.85;;;2.60;;
73909;SDS011;62245;48.070;7.874;2022-09-02T03:17:08;5.45;;;2.90;;
73909;SDS011;62245;48.070;7.874;2022-09-02T03:19:34;5.15;;;2.30;;
73909;SDS011;62245;48.070;7.874;2022-09-02T03:21:59;4.60;;;2.23;;
73909;SDS011;62245;48.070;7.874;2022-09-02T03:24:24;4.47;;;2.50;;
73909;SDS011;62245;48.070;7.874;2022-09-02T03:26:50;4.73;;;2.70;;
73909;SDS011;62245;48.070;7.874;2022-09-02T03:29:15;4.90;;;2.80;;
73909;SDS011;62245;48.070;7.874;2022-09-02T03:31:40;6.70;;;2.67;;
73909;SDS011;62245;48.070;7.874;2022-09-02T03:34:05;5.87;;;2.60;;
73909;SDS011;62245;48.070;7.874;2022-09-02T03:36:33;4.45;;;2.47;;
73909;SDS011;62245;48.070;7.874;2022-09-02T03:39:02;6.20;;;3.10;;
73909;SDS011;62245;48.070;7.874;2022-09-02T03:41:29;6.30;;;2.60;;
73909;SDS011;62245;48.070;7.874;2022-09-02T03:43:54;6.10;;;2.53;;
73909;SDS011;62245;48.070;7.874;2022-09-02T03:46:19;5.78;;;2.35;;
73909;SDS011;62245;48.070;7.874;2022-09-02T03:48:45;5.57;;;2.50;;
73909;SDS011;62245;48.070;7.874;2022-09-02T03:51:11;5.82;;;2.50;;
73909;SDS011;62245;48.070;7.874;2022-09-02T03:53:36;6.45;;;2.50;;
73909;SDS011;62245;48.070;7.874;2022-09-02T03:56:04;7.00;;;2.38;;
73909;SDS011;62245;48.070;7.874;2022-09-02T03:58:31;6.18;;;2.83;;
73909;SDS011;62245;48.070;7.874;2022-09-02T04:00:57;7.10;;;3.20;;
73909;SDS011;62245;48.070;7.874;2022-09-02T04:03:22;6.95;;;2.72;;
73909;SDS011;62245;48.070;7.874;2022-09-02T04:05:48;5.17;;;2.80;;
73909;SDS011;62245;48.070;7.874;2022-09-02T04:08:15;6.55;;;3.05;;
73909;SDS011;62245;48.070;7.874;2022-09-02T04:10:40;5.05;;;2.85;;
73909;SDS011;62245;48.070;7.874;2022-09-02T04:13:06;6.57;;;2.63;;
73909;SDS011;62245;48.070;7.874;2022-09-02T04:15:31;5.78;;;2.97;;
73909;SDS011;62245;48.070;7.874;2022-09-02T04:17:57;6.13;;;3.03;;
73909;SDS011;62245;48.070;7.874;2022-09-02T04:20:22;5.25;;;2.60;;
73909;SDS011;62245;48.070;7.874;2022-09-02T04:22:48;6.22;;;2.60;;
73909;SDS011;62245;48.070;7.874;2022-09-02T04:25:13;5.87;;;2.83;;
73909;SDS011;62245;48.070;7.874;2022-09-02T04:27:38;6.03;;;2.58;;
73909;SDS011;62245;48.070;7.874;2022-09-02T04:30:04;8.70;;;3.20;;
73909;SDS011;62245;48.070;7.874;2022-09-02T04:32:30;5.65;;;3.13;;
73909;SDS011;62245;48.070;7.874;2022-09-02T04:34:56;6.05;;;2.72;;
73909;SDS011;62245;48.070;7.874;2022-09-02T04:37:21;6.23;;;2.93;;
73909;SDS011;62245;48.070;7.874;2022-09-02T04:39:46;6.00;;;2.72;;
73909;SDS011;62245;48.070;7.874;2022-09-02T04:42:11;6.10;;;2.93;;
73909;SDS011;62245;48.070;7.874;2022-09-02T04:44:37;5.07;;;3.37;;
73909;SDS011;62245;48.070;7.874;2022-09-02T04:47:02;5.67;;;2.60;;
73909;SDS011;62245;48.070;7.874;2022-09-02T04:49:27;5.93;;;2.75;;
73909;SDS011;62245;48.070;7.874;2022-09-02T04:51:56;5.88;;;2.72;;
73909;SDS011;62245;48.070;7.874;2022-09-02T04:54:21;5.00;;;2.70;;
73909;SDS011;62245;48.070;7.874;2022-09-02T04:56:47;6.03;;;2.70;;
73909;SDS011;62245;48.070;7.874;2022-09-02T04:59:12;5.03;;;2.50;;
73909;SDS011;62245;48.070;7.874;2022-09-02T05:01:37;4.97;;;2.80;;
73909;SDS011;62245;48.070;7.874;2022-09-02T05:04:04;4.87;;;2.67;;
73909;SDS011;62245;48.070;7.874;2022-09-02T05:06:33;5.45;;;2.75;;
73909;SDS011;62245;48.070;7.874;2022-09-02T05:08:59;4.88;;;2.15;;
73909;SDS011;62245;48.070;7.874;2022-09-02T05:11:26;5.47;;;2.95;;
73909;SDS011;62245;48.070;7.874;2022-09-02T05:13:52;5.63;;;2.80;;
73909;SDS011;62245;48.070;7.874;2022-09-02T05:16:23;6.35;;;3.05;;
73909;SDS011;62245;48.070;7.874;2022-09-02T05:18:51;6.30;;;2.95;;
73909;SDS011;62245;48.070;7.874;2022-09-02T05:21:18;6.05;;;2.60;;
73909;SDS011;62245;48.070;7.874;2022-09-02T05:23:43;6.68;;;2.78;;
73909;SDS011;62245;48.070;7.874;2022-09-02T05:26:10;6.32;;;2.80;;
73909;SDS011;62245;48.070;7.874;2022-09-02T05:28:37;4.70;;;2.30;;
73909;SDS011;62245;48.070;7.874;2022-09-02T05:31:04;4.85;;;2.25;;
73909;SDS011;62245;48.070;7.874;2022-09-02T05:33:32;5.13;;;2.53;;
73909;SDS011;62245;48.070;7.874;2022-09-02T05:35:58;5.72;;;2.88;;
73909;SDS011;62245;48.070;7.874;2022-09-02T05:38:23;5.20;;;2.47;;
73909;SDS011;62245;48.070;7.874;2022-09-02T05:40:49;7.13;;;3.10;;
73909;SDS011;62245;48.070;7.874;2022-09-02T05:43:14;6.25;;;3.15;;
73909;SDS011;62245;48.070;7.874;2022-09-02T05:45:40;5.87;;;2.90;;
73909;SDS011;62245;48.070;7.874;2022-09-02T05:48:05;5.37;;;2.90;;
73909;SDS011;62245;48.070;7.874;2022-09-02T05:50:50;8.65;;;2.63;;
73909;SDS011;62245;48.070;7.874;2022-09-02T05:53:15;7.00;;;3.00;;
73909;SDS011;62245;48.070;7.874;2022-09-02T05:55:41;7.03;;;3.10;;
73909;SDS011;62245;48.070;7.874;2022-09-02T05:58:06;7.90;;;3.22;;
73909;SDS011;62245;48.070;7.874;2022-09-02T06:00:32;9.48;;;3.80;;
73909;SDS011;62245;48.070;7.874;2022-09-02T06:02:57;6.87;;;2.87;;
73909;SDS011;62245;48.070;7.874;2022-09-02T06:05:22;6.80;;;3.10;;
73909;SDS011;62245;48.070;7.874;2022-09-02T06:07:48;5.25;;;2.83;;
73909;SDS011;62245;48.070;7.874;2022-09-02T06:10:13;7.37;;;3.17;;
73909;SDS011;62245;48.070;7.874;2022-09-02T06:12:39;5.32;;;2.72;;
73909;SDS011;62245;48.070;7.874;2022-09-02T06:15:05;6.80;;;3.08;;
73909;SDS011;62245;48.070;7.874;2022-09-02T06:17:31;12.68;;;4.45;;
73909;SDS011;62245;48.070;7.874;2022-09-02T06:19:56;16.67;;;5.43;;
73909;SDS011;62245;48.070;7.874;2022-09-02T06:22:22;12.23;;;4.27;;
73909;SDS011;62245;48.070;7.874;2022-09-02T06:24:47;8.43;;;3.88;;
73909;SDS011;62245;48.070;7.874;2022-09-02T06:27:12;5.27;;;3.07;;
73909;SDS011;62245;48.070;7.874;2022-09-02T06:29:38;6.37;;;3.10;;
73909;SDS011;62245;48.070;7.874;2022-09-02T06:32:03;7.97;;;3.28;;
73909;SDS011;62245;48.070;7.874;2022-09-02T06:34:28;7.82;;;3.25;;
73909;SDS011;62245;48.070;7.874;2022-09-02T06:36:54;7.50;;;3.40;;
73909;SDS011;62245;48.070;7.874;2022-09-02T06:39:20;7.55;;;3.70;;
73909;SDS011;62245;48.070;7.874;2022-09-02T06:41:47;10.57;;;4.13;;
73909;SDS011;62245;48.070;7.874;2022-09-02T06:44:13;11.70;;;4.60;;
73909;SDS011;62245;48.070;7.874;2022-09-02T06:46:41;10.88;;;4.85;;
73909;SDS011;62245;48.070;7.874;2022-09-02T06:49:08;11.75;;;5.32;;
73909;SDS011;62245;48.070;7.874;2022-09-02T06:51:39;8.68;;;5.00;;
73909;SDS011;62245;48.070;7.874;2022-09-02T06:54:08;10.15;;;4.75;;
73909;SDS011;62245;48.070;7.874;2022-09-02T06:56:35;7.18;;;4.85;;
73909;SDS011;62245;48.070;7.874;2022-09-02T06:59:02;7.57;;;4.38;;
73909;SDS011;62245;48.070;7.874;2022-09-02T07:01:29;10.15;;;4.32;;
73909;SDS011;62245;48.070;7.874;2022-09-02T07:03:55;7.15;;;4.13;;
73909;SDS011;62245;48.070;7.874;2022-09-02T07:06:42;6.82;;;4.10;;
73909;SDS011;62245;48.070;7.874;2022-09-02T07:09:10;7.22;;;4.50;;
73909;SDS011;62245;48.070;7.874;2022-09-02T07:11:37;5.88;;;3.53;;
73909;SDS011;62245;48.070;7.874;2022-09-02T07:14:03;6.93;;;4.38;;
73909;SDS011;62245;48.070;7.874;2022-09-02T07:16:31;7.90;;;4.05;;
73909;SDS011;62245;48.070;7.874;2022-09-02T07:19:00;9.13;;;4.22;;
73909;SDS011;62245;48.070;7.874;2022-09-02T07:21:27;6.53;;;3.97;;
73909;SDS011;62245;48.070;7.874;2022-09-02T07:23:53;7.13;;;3.30;;
73909;SDS011;62245;48.070;7.874;2022-09-02T07:26:20;6.78;;;3.90;;
73909;SDS011;62245;48.070;7.874;2022-09-02T07:28:46;8.13;;;4.50;;
73909;SDS011;62245;48.070;7.874;2022-09-02T07:31:12;7.15;;;4.35;;
73909;SDS011;62245;48.070;7.874;2022-09-02T07:33:39;7.93;;;3.72;;
73909;SDS011;62245;48.070;7.874;2022-09-02T07:36:05;6.95;;;3.88;;
73909;SDS011;62245;48.070;7.874;2022-09-02T07:38:34;8.25;;;4.40;;
73909;SDS011;62245;48.070;7.874;2022-09-02T07:41:00;7.32;;;3.72;;
73909;SDS011;62245;48.070;7.874;2022-09-02T07:43:26;5.70;;;3.42;;
73909;SDS011;62245;48.070;7.874;2022-09-02T07:45:53;6.90;;;3.10;;
73909;SDS011;62245;48.070;7.874;2022-09-02T07:48:20;7.50;;;4.03;;
73909;SDS011;62245;48.070;7.874;2022-09-02T07:50:46;5.00;;;2.97;;
73909;SDS011;62245;48.070;7.874;2022-09-02T07:53:11;5.80;;;3.30;;
73909;SDS011;62245;48.070;7.874;2022-09-02T07:55:38;7.45;;;2.88;;
73909;SDS011;62245;48.070;7.874;2022-09-02T07:58:05;7.22;;;3.17;;
73909;SDS011;62245;48.070;7.874;2022-09-02T08:00:30;7.28;;;4.43;;
73909;SDS011;62245;48.070;7.874;2022-09-02T08:02:56;6.00;;;3.58;;
73909;SDS011;62245;48.070;7.874;2022-09-02T08:05:23;12.73;;;3.63;;
73909;SDS011;62245;48.070;7.874;2022-09-02T08:07:48;6.82;;;3.10;;
73909;SDS011;62245;48.070;7.874;2022-09-02T08:10:14;6.47;;;3.53;;
73909;SDS011;62245;48.070;7.874;2022-09-02T08:12:40;8.57;;;3.58;;
73909;SDS011;62245;48.070;7.874;2022-09-02T08:15:07;5.60;;;2.83;;
73909;SDS011;62245;48.070;7.874;2022-09-02T08:17:34;5.28;;;2.90;;
73909;SDS011;62245;48.070;7.874;2022-09-02T08:20:00;6.63;;;3.38;;
73909;SDS011;62245;48.070;7.874;2022-09-02T08:22:31;5.25;;;2.85;;
73909;SDS011;62245;48.070;7.874;2022-09-02T08:24:59;5.70;;;3.13;;
73909;SDS011;62245;48.070;7.874;2022-09-02T08:27:24;5.45;;;2.60;;
73909;SDS011;62245;48.070;7.874;2022-09-02T08:29:51;5.50;;;2.92;;
73909;SDS011;62245;48.070;7.874;2022-09-02T08:32:17;4.57;;;2.53;;
73909;SDS011;62245;48.070;7.874;2022-09-02T08:34:42;6.97;;;2.90;;
73909;SDS011;62245;48.070;7.874;2022-09-02T08:37:08;5.15;;;2.90;;
73909;SDS011;62245;48.070;7.874;2022-09-02T08:39:33;6.00;;;2.63;;
73909;SDS011;62245;48.070;7.874;2022-09-02T08:42:14;5.35;;;2.50;;
73909;SDS011;62245;48.070;7.874;2022-09-02T08:47:15;5.72;;;2.70;;
73909;SDS011;62245;48.070;7.874;2022-09-02T08:49:47;5.22;;;2.30;;
73909;SDS011;62245;48.070;7.874;2022-09-02T08:52:29;5.07;;;2.42;;
73909;SDS011;62245;48.070;7.874;2022-09-02T08:55:09;5.97;;;3.10;;
73909;SDS011;62245;48.070;7.874;2022-09-02T08:57:40;5.57;;;2.40;;
73909;SDS011;62245;48.070;7.874;2022-09-02T09:00:08;5.30;;;2.75;;
73909;SDS011;62245;48.070;7.874;2022-09-02T09:08:13;4.40;;;2.58;;
73909;SDS011;62245;48.070;7.874;2022-09-02T09:10:53;4.85;;;2.75;;
73909;SDS011;62245;48.070;7.874;2022-09-02T09:16:00;8.32;;;2.58;;
73909;SDS011;62245;48.070;7.874;2022-09-02T09:19:23;5.80;;;2.58;;
73909;SDS011;62245;48.070;7.874;2022-09-02T09:21:54;5.30;;;2.78;;
73909;SDS011;62245;48.070;7.874;2022-09-02T09:26:53;7.85;;;2.58;;
73909;SDS011;62245;48.070;7.874;2022-09-02T09:29:21;4.57;;;2.20;;
73909;SDS011;62245;48.070;7.874;2022-09-02T09:31:49;6.53;;;2.67;;
73909;SDS011;62245;48.070;7.874;2022-09-02T09:34:21;6.30;;;2.25;;
73909;SDS011;62245;48.070;7.874;2022-09-02T09:36:48;6.25;;;2.13;;
73909;SDS011;62245;48.070;7.874;2022-09-02T09:41:54;4.47;;;2.53;;
73909;SDS011;62245;48.070;7.874;2022-09-02T09:44:28;4.50;;;2.10;;
73909;SDS011;62245;48.070;7.874;2022-09-02T09:47:02;4.32;;;1.83;;
73909;SDS011;62245;48.070;7.874;2022-09-02T09:49:31;3.50;;;1.60;;
73909;SDS011;62245;48.070;7.874;2022-09-02T09:51:57;5.63;;;2.17;;
73909;SDS011;62245;48.070;7.874;2022-09-02T09:54:23;5.13;;;1.95;;
73909;SDS011;62245;48.070;7.874;2022-09-02T09:56:50;4.70;;;1.85;;
73909;SDS011;62245;48.070;7.874;2022-09-02T10:02:24;3.35;;;1.60;;
73909;SDS011;62245;48.070;7.874;2022-09-02T10:04:51;5.30;;;2.00;;
73909;SDS011;62245;48.070;7.874;2022-09-02T10:07:37;5.75;;;1.95;;
73909;SDS011;62245;48.070;7.874;2022-09-02T10:10:15;5.55;;;2.10;;
73909;SDS011;62245;48.070;7.874;2022-09-02T10:12:44;4.13;;;2.03;;
73909;SDS011;62245;48.070;7.874;2022-09-02T10:15:11;5.25;;;1.45;;
73909;SDS011;62245;48.070;7.874;2022-09-02T10:17:42;3.85;;;1.52;;
73909;SDS011;62245;48.070;7.874;2022-09-02T10:20:30;3.55;;;1.67;;
73909;SDS011;62245;48.070;7.874;2022-09-02T10:25:57;8.10;;;3.80;;
73909;SDS011;62245;48.070;7.874;2022-09-02T10:28:34;5.38;;;1.58;;
73909;SDS011;62245;48.070;7.874;2022-09-02T10:34:19;4.03;;;1.77;;
73909;SDS011;62245;48.070;7.874;2022-09-02T10:42:33;4.13;;;1.92;;
73909;SDS011;62245;48.070;7.874;2022-09-02T10:47:38;3.45;;;1.85;;
73909;SDS011;62245;48.070;7.874;2022-09-02T10:50:12;3.25;;;1.50;;
73909;SDS011;62245;48.070;7.874;2022-09-02T10:52:50;3.63;;;1.83;;
73909;SDS011;62245;48.070;7.874;2022-09-02T10:55:30;3.00;;;1.70;;
73909;SDS011;62245;48.070;7.874;2022-09-02T11:00:42;4.05;;;1.52;;
73909;SDS011;62245;48.070;7.874;2022-09-02T11:03:16;3.53;;;1.40;;
73909;SDS011;62245;48.070;7.874;2022-09-02T11:05:53;5.30;;;1.90;;
73909;SDS011;62245;48.070;7.874;2022-09-02T11:08:26;4.95;;;1.70;;
73909;SDS011;62245;48.070;7.874;2022-09-02T11:16:27;3.75;;;1.85;;
73909;SDS011;62245;48.070;7.874;2022-09-02T11:19:13;3.75;;;1.70;;
73909;SDS011;62245;48.070;7.874;2022-09-02T11:21:55;4.15;;;2.00;;
73909;SDS011;62245;48.070;7.874;2022-09-02T11:24:29;10.05;;;6.18;;
73909;SDS011;62245;48.070;7.874;2022-09-02T11:27:16;5.43;;;2.95;;
73909;SDS011;62245;48.070;7.874;2022-09-02T11:30:13;3.67;;;1.50;;
73909;SDS011;62245;48.070;7.874;2022-09-02T11:35:22;4.38;;;1.60;;
73909;SDS011;62245;48.070;7.874;2022-09-02T11:45:51;4.80;;;1.50;;
73909;SDS011;62245;48.070;7.874;2022-09-02T11:48:59;3.72;;;1.60;;
73909;SDS011;62245;48.070;7.874;2022-09-02T11:54:27;5.85;;;1.90;;
73909;SDS011;62245;48.070;7.874;2022-09-02T11:57:01;3.60;;;1.73;;
73909;SDS011;62245;48.070;7.874;2022-09-02T12:02:59;5.22;;;2.00;;
73909;SDS011;62245;48.070;7.874;2022-09-02T12:08:09;4.35;;;1.63;;
73909;SDS011;62245;48.070;7.874;2022-09-02T12:11:02;3.40;;;2.00;;
73909;SDS011;62245;48.070;7.874;2022-09-02T12:13:31;5.03;;;1.90;;
73909;SDS011;62245;48.070;7.874;2022-09-02T12:18:36;3.85;;;1.70;;
73909;SDS011;62245;48.070;7.874;2022-09-02T12:21:12;6.50;;;3.20;;
73909;SDS011;62245;48.070;7.874;2022-09-02T12:26:29;4.22;;;2.10;;
73909;SDS011;62245;48.070;7.874;2022-09-02T12:31:44;3.60;;;1.60;;
73909;SDS011;62245;48.070;7.874;2022-09-02T12:36:46;3.42;;;1.70;;
73909;SDS011;62245;48.070;7.874;2022-09-02T12:39:43;2.55;;;1.40;;
73909;SDS011;62245;48.070;7.874;2022-09-02T12:55:06;4.00;;;1.60;;
73909;SDS011;62245;48.070;7.874;2022-09-02T12:57:37;3.90;;;1.60;;
73909;SDS011;62245;48.070;7.874;2022-09-02T13:00:04;4.55;;;1.88;;
73909;SDS011;62245;48.070;7.874;2022-09-02T13:02:43;4.32;;;1.60;;
73909;SDS011;62245;48.070;7.874;2022-09-02T13:05:25;4.00;;;1.80;;
73909;SDS011;62245;48.070;7.874;2022-09-02T13:33:25;4.57;;;1.63;;
73909;SDS011;62245;48.070;7.874;2022-09-02T13:35:54;3.67;;;1.83;;
73909;SDS011;62245;48.070;7.874;2022-09-02T13:38:23;3.72;;;1.35;;
73909;SDS011;62245;48.070;7.874;2022-09-02T13:40:51;3.22;;;1.73;;
73909;SDS011;62245;48.070;7.874;2022-09-02T13:43:17;4.13;;;1.98;;
73909;SDS011;62245;48.070;7.874;2022-09-02T13:45:44;2.85;;;1.45;;
73909;SDS011;62245;48.070;7.874;2022-09-02T13:48:18;3.33;;;1.85;;
73909;SDS011;62245;48.070;7.874;2022-09-02T13:50:47;2.80;;;1.42;;
73909;SDS011;62245;48.070;7.874;2022-09-02T13:53:23;3.80;;;1.65;;
73909;SDS011;62245;48.070;7.874;2022-09-02T13:55:54;3.35;;;1.50;;
73909;SDS011;62245;48.070;7.874;2022-09-02T13:58:31;4.60;;;1.85;;
73909;SDS011;62245;48.070;7.874;2022-09-02T14:03:53;4.28;;;1.83;;
73909;SDS011;62245;48.070;7.874;2022-09-02T14:08:48;5.85;;;2.00;;
73909;SDS011;62245;48.070;7.874;2022-09-02T14:11:16;2.90;;;1.50;;
73909;SDS011;62245;48.070;7.874;2022-09-02T14:13:44;3.63;;;1.42;;
73909;SDS011;62245;48.070;7.874;2022-09-02T14:21:45;3.15;;;1.60;;
73909;SDS011;62245;48.070;7.874;2022-09-02T14:24:12;4.03;;;1.85;;
73909;SDS011;62245;48.070;7.874;2022-09-02T14:26:43;4.05;;;2.00;;
73909;SDS011;62245;48.070;7.874;2022-09-02T14:29:11;3.78;;;1.90;;
73909;SDS011;62245;48.070;7.874;2022-09-02T14:31:39;5.25;;;1.50;;
73909;SDS011;62245;48.070;7.874;2022-09-02T14:34:30;3.50;;;1.70;;
73909;SDS011;62245;48.070;7.874;2022-09-02T14:36:58;3.97;;;1.40;;
73909;SDS011;62245;48.070;7.874;2022-09-02T14:39:24;3.80;;;1.80;;
73909;SDS011;62245;48.070;7.874;2022-09-02T14:41:53;4.10;;;1.90;;
73909;SDS011;62245;48.070;7.874;2022-09-02T14:46:59;4.65;;;2.03;;
73909;SDS011;62245;48.070;7.874;2022-09-02T14:49:33;3.17;;;1.65;;
73909;SDS011;62245;48.070;7.874;2022-09-02T14:52:25;3.95;;;1.70;;
73909;SDS011;62245;48.070;7.874;2022-09-02T14:54:54;4.15;;;1.60;;
73909;SDS011;62245;48.070;7.874;2022-09-02T14:59:57;3.20;;;1.50;;
73909;SDS011;62245;48.070;7.874;2022-09-02T15:04:54;4.03;;;1.90;;
73909;SDS011;62245;48.070;7.874;2022-09-02T15:07:24;3.33;;;1.73;;
73909;SDS011;62245;48.070;7.874;2022-09-02T15:09:50;3.17;;;1.50;;
73909;SDS011;62245;48.070;7.874;2022-09-02T15:12:20;3.03;;;1.48;;
73909;SDS011;62245;48.070;7.874;2022-09-02T15:14:49;4.53;;;1.75;;
73909;SDS011;62245;48.070;7.874;2022-09-02T15:17:15;4.60;;;1.92;;
73909;SDS011;62245;48.070;7.874;2022-09-02T15:19:40;4.80;;;1.73;;
73909;SDS011;62245;48.070;7.874;2022-09-02T15:22:05;4.43;;;1.70;;
73909;SDS011;62245;48.070;7.874;2022-09-02T15:24:31;4.30;;;2.00;;
73909;SDS011;62245;48.070;7.874;2022-09-02T15:26:56;3.92;;;2.10;;
73909;SDS011;62245;48.070;7.874;2022-09-02T15:29:22;4.47;;;2.10;;
73909;SDS011;62245;48.070;7.874;2022-09-02T15:31:49;6.18;;;1.50;;
73909;SDS011;62245;48.070;7.874;2022-09-02T15:36:41;4.63;;;1.98;;
73909;SDS011;62245;48.070;7.874;2022-09-02T15:39:06;4.93;;;1.87;;
73909;SDS011;62245;48.070;7.874;2022-09-02T15:41:32;3.60;;;1.80;;
73909;SDS011;62245;48.070;7.874;2022-09-02T15:43:58;3.03;;;1.60;;
73909;SDS011;62245;48.070;7.874;2022-09-02T15:46:27;5.70;;;1.60;;
73909;SDS011;62245;48.070;7.874;2022-09-02T15:48:55;4.35;;;1.80;;
73909;SDS011;62245;48.070;7.874;2022-09-02T15:51:25;5.72;;;2.10;;
73909;SDS011;62245;48.070;7.874;2022-09-02T15:53:54;5.38;;;1.80;;
73909;SDS011;62245;48.070;7.874;2022-09-02T15:56:21;3.97;;;1.80;;
73909;SDS011;62245;48.070;7.874;2022-09-02T15:58:55;3.50;;;1.77;;
73909;SDS011;62245;48.070;7.874;2022-09-02T16:01:23;7.05;;;2.10;;
73909;SDS011;62245;48.070;7.874;2022-09-02T16:03:52;5.88;;;2.20;;
73909;SDS011;62245;48.070;7.874;2022-09-02T16:06:19;4.95;;;1.85;;
73909;SDS011;62245;48.070;7.874;2022-09-02T16:08:44;3.63;;;1.95;;
73909;SDS011;62245;48.070;7.874;2022-09-02T16:11:09;5.00;;;1.83;;
73909;SDS011;62245;48.070;7.874;2022-09-02T16:13:35;7.57;;;1.90;;
73909;SDS011;62245;48.070;7.874;2022-09-02T16:16:02;6.82;;;1.52;;
73909;SDS011;62245;48.070;7.874;2022-09-02T16:18:29;7.40;;;1.20;;
73909;SDS011;62245;48.070;7.874;2022-09-02T16:20:54;6.88;;;0.93;;
73909;SDS011;62245;48.070;7.874;2022-09-02T16:23:20;3.73;;;1.47;;
73909;SDS011;62245;48.070;7.874;2022-09-02T16:25:45;4.50;;;1.20;;
73909;SDS011;62245;48.070;7.874;2022-09-02T16:28:10;3.78;;;0.98;;
73909;SDS011;62245;48.070;7.874;2022-09-02T16:30:36;2.97;;;0.93;;
73909;SDS011;62245;48.070;7.874;2022-09-02T16:33:02;5.65;;;1.20;;
73909;SDS011;62245;48.070;7.874;2022-09-02T16:35:27;3.28;;;1.00;;
73909;SDS011;62245;48.070;7.874;2022-09-02T16:37:52;2.40;;;1.10;;
73909;SDS011;62245;48.070;7.874;2022-09-02T16:40:20;3.17;;;0.98;;
73909;SDS011;62245;48.070;7.874;2022-09-02T16:42:46;6.07;;;1.02;;
73909;SDS011;62245;48.070;7.874;2022-09-02T16:45:11;3.75;;;1.00;;
73909;SDS011;62245;48.070;7.874;2022-09-02T16:47:37;3.25;;;1.00;;
73909;SDS011;62245;48.070;7.874;2022-09-02T16:50:02;3.00;;;0.90;;
73909;SDS011;62245;48.070;7.874;2022-09-02T16:52:27;2.92;;;0.90;;
73909;SDS011;62245;48.070;7.874;2022-09-02T16:54:53;2.45;;;1.10;;
73909;SDS011;62245;48.070;7.874;2022-09-02T16:57:18;5.73;;;1.23;;
73909;SDS011;62245;48.070;7.874;2022-09-02T16:59:44;2.87;;;1.00;;
73909;SDS011;62245;48.070;7.874;2022-09-02T17:02:09;2.87;;;1.20;;
73909;SDS011;62245;48.070;7.874;2022-09-02T17:04:35;3.95;;;0.80;;
73909;SDS011;62245;48.070;7.874;2022-09-02T17:07:00;3.00;;;1.00;;
73909;SDS011;62245;48.070;7.874;2022-09-02T17:09:25;5.40;;;1.27;;
73909;SDS011;62245;48.070;7.874;2022-09-02T17:11:50;2.47;;;1.10;;
73909;SDS011;62245;48.070;7.874;2022-09-02T17:14:16;2.13;;;1.10;;
73909;SDS011;62245;48.070;7.874;2022-09-02T17:16:46;3.42;;;1.20;;
73909;SDS011;62245;48.070;7.874;2022-09-02T17:19:13;1.42;;;0.77;;
73909;SDS011;62245;48.070;7.874;2022-09-02T17:21:44;1.95;;;0.93;;
73909;SDS011;62245;48.070;7.874;2022-09-02T17:24:12;19.23;;;13.38;;
73909;SDS011;62245;48.070;7.874;2022-09-02T17:26:39;9.23;;;5.80;;
73909;SDS011;62245;48.070;7.874;2022-09-02T17:29:07;3.97;;;1.55;;
73909;SDS011;62245;48.070;7.874;2022-09-02T17:31:34;3.08;;;1.42;;
73909;SDS011;62245;48.070;7.874;2022-09-02T17:34:01;3.65;;;1.05;;
73909;SDS011;62245;48.070;7.874;2022-09-02T17:38:59;3.42;;;1.05;;
73909;SDS011;62245;48.070;7.874;2022-09-02T17:41:27;3.17;;;1.30;;
73909;SDS011;62245;48.070;7.874;2022-09-02T17:44:12;3.60;;;1.60;;
73909;SDS011;62245;48.070;7.874;2022-09-02T17:46:39;4.13;;;1.00;;
73909;SDS011;62245;48.070;7.874;2022-09-02T17:49:05;2.63;;;1.23;;
73909;SDS011;62245;48.070;7.874;2022-09-02T17:51:31;2.80;;;1.05;;
73909;SDS011;62245;48.070;7.874;2022-09-02T17:53:56;5.03;;;1.60;;
73909;SDS011;62245;48.070;7.874;2022-09-02T17:56:33;4.03;;;1.80;;
73909;SDS011;62245;48.070;7.874;2022-09-02T18:02:03;2.80;;;0.98;;
73909;SDS011;62245;48.070;7.874;2022-09-02T18:10:15;2.85;;;1.42;;
73909;SDS011;62245;48.070;7.874;2022-09-02T18:12:41;2.30;;;0.90;;
73909;SDS011;62245;48.070;7.874;2022-09-02T18:15:07;3.35;;;1.27;;
73909;SDS011;62245;48.070;7.874;2022-09-02T18:17:36;2.58;;;1.20;;
73909;SDS011;62245;48.070;7.874;2022-09-02T18:26:42;1.83;;;1.10;;
73909;SDS011;62245;48.070;7.874;2022-09-02T18:28:58;2.60;;;1.10;;
73909;SDS011;62245;48.070;7.874;2022-09-02T18:37:27;5.10;;;2.15;;
73909;SDS011;62245;48.070;7.874;2022-09-02T18:40:20;3.80;;;1.70;;
73909;SDS011;62245;48.070;7.874;2022-09-02T18:45:52;7.60;;;3.35;;
73909;SDS011;62245;48.070;7.874;2022-09-02T18:48:30;6.18;;;2.47;;
73909;SDS011;62245;48.070;7.874;2022-09-02T18:51:02;3.97;;;1.70;;
73909;SDS011;62245;48.070;7.874;2022-09-02T18:53:39;4.72;;;1.90;;
73909;SDS011;62245;48.070;7.874;2022-09-02T18:56:09;6.05;;;1.60;;
73909;SDS011;62245;48.070;7.874;2022-09-02T18:58:46;5.18;;;1.75;;
73909;SDS011;62245;48.070;7.874;2022-09-02T19:01:28;3.30;;;1.33;;
73909;SDS011;62245;48.070;7.874;2022-09-02T19:06:25;5.50;;;1.58;;
73909;SDS011;62245;48.070;7.874;2022-09-02T19:08:57;3.70;;;1.20;;
73909;SDS011;62245;48.070;7.874;2022-09-02T19:11:24;3.92;;;2.10;;
73909;SDS011;62245;48.070;7.874;2022-09-02T19:13:55;5.28;;;1.83;;
73909;SDS011;62245;48.070;7.874;2022-09-02T19:16:35;4.18;;;1.73;;
73909;SDS011;62245;48.070;7.874;2022-09-02T19:19:03;5.00;;;1.63;;
73909;SDS011;62245;48.070;7.874;2022-09-02T19:21:39;4.43;;;1.80;;
73909;SDS011;62245;48.070;7.874;2022-09-02T19:24:10;3.85;;;1.75;;
73909;SDS011;62245;48.070;7.874;2022-09-02T19:26:37;3.58;;;1.58;;
73909;SDS011;62245;48.070;7.874;2022-09-02T19:29:04;2.65;;;1.15;;
73909;SDS011;62245;48.070;7.874;2022-09-02T19:31:31;5.05;;;1.60;;
73909;SDS011;62245;48.070;7.874;2022-09-02T19:33:58;4.90;;;1.85;;
73909;SDS011;62245;48.070;7.874;2022-09-02T19:36:26;5.38;;;1.80;;
73909;SDS011;62245;48.070;7.874;2022-09-02T19:38:53;4.43;;;1.65;;
73909;SDS011;62245;48.070;7.874;2022-09-02T19:41:19;3.58;;;1.23;;
73909;SDS011;62245;48.070;7.874;2022-09-02T19:43:44;3.90;;;1.83;;
73909;SDS011;62245;48.070;7.874;2022-09-02T19:46:10;4.53;;;1.80;;
73909;SDS011;62245;48.070;7.874;2022-09-02T19:48:35;3.37;;;1.50;;
73909;SDS011;62245;48.070;7.874;2022-09-02T19:51:03;7.22;;;1.83;;
73909;SDS011;62245;48.070;7.874;2022-09-02T19:53:33;5.03;;;2.03;;
73909;SDS011;62245;48.070;7.874;2022-09-02T19:56:00;4.00;;;1.45;;
73909;SDS011;62245;48.070;7.874;2022-09-02T19:58:26;5.75;;;2.20;;
73909;SDS011;62245;48.070;7.874;2022-09-02T20:00:52;3.97;;;1.73;;
73909;SDS011;62245;48.070;7.874;2022-09-02T20:05:49;4.73;;;1.50;;
73909;SDS011;62245;48.070;7.874;2022-09-02T20:08:16;4.50;;;1.90;;
73909;SDS011;62245;48.070;7.874;2022-09-02T20:10:43;7.60;;;1.75;;
73909;SDS011;62245;48.070;7.874;2022-09-02T20:13:19;3.78;;;1.50;;
73909;SDS011;62245;48.070;7.874;2022-09-02T20:15:46;5.80;;;1.88;;
73909;SDS011;62245;48.070;7.874;2022-09-02T20:18:12;4.72;;;1.70;;
73909;SDS011;62245;48.070;7.874;2022-09-02T20:20:46;4.70;;;1.75;;
73909;SDS011;62245;48.070;7.874;2022-09-02T20:23:15;4.45;;;1.73;;
73909;SDS011;62245;48.070;7.874;2022-09-02T20:28:48;3.97;;;1.63;;
73909;SDS011;62245;48.070;7.874;2022-09-02T20:31:35;5.55;;;1.90;;
73909;SDS011;62245;48.070;7.874;2022-09-02T20:34:28;4.80;;;1.60;;
73909;SDS011;62245;48.070;7.874;2022-09-02T20:43:14;7.85;;;3.60;;
73909;SDS011;62245;48.070;7.874;2022-09-02T20:46:06;5.72;;;2.33;;
73909;SDS011;62245;48.070;7.874;2022-09-02T21:05:28;4.43;;;1.80;;
73909;SDS011;62245;48.070;7.874;2022-09-02T21:08:08;6.13;;;1.92;;
73909;SDS011;62245;48.070;7.874;2022-09-02T21:10:50;3.92;;;1.98;;